Tuesday, January 22, 2019, 9:55 PM GMT
Back to Local

CYSJ, Saint John, N. B.

Location: , , Canada Lat: 45.333
Local Time: 9:55 PM GMT (21:55 GMT) Lon: -65.883
Time Zone: GMT Elev: 337 ft

Show me the last for .
Show Decoded

2019-01-22 21:00 METAR CYSJ 222100Z 31021G29KT 15SM DRSN FEW020 M10/M16 A3009 RMK SC1 SLP202 =
2019-01-22 20:00 METAR CYSJ 222000Z 31021G31KT 15SM DRSN FEW025 M09/M15 A3006 RMK SC1 SLP188 =
2019-01-22 19:00 METAR CYSJ 221900Z 32020G30KT 15SM DRSN FEW025 M10/M15 A3003 RMK SC1 PRESRR
                 SLP180 =
2019-01-22 18:00 METAR CYSJ 221800Z 32018G27KT 15SM DRSN FEW028 M10/M15 A3000 RMK SC2 SLP171 =
2019-01-22 17:00 METAR CYSJ 221700Z 32019G28KT 15SM DRSN SCT022 M12/M17 A2999 RMK SC4 SLP165 =
2019-01-22 16:00 METAR CYSJ 221600Z 31018G26KT 15SM DRSN FEW020 M13/M18 A2998 RMK SC2 SLP161 =
2019-01-22 15:00 METAR CYSJ 221500Z 31017G28KT 15SM DRSN FEW020 SCT130 M14/M19 A2996 RMK SC2AC1
                 SLP157 =
2019-01-22 14:00 METAR CYSJ 221400Z 31022G30KT 15SM DRSN FEW020 SCT080 M15/M20 A2993 RMK SC2AC1
                 SLP146 =
2019-01-22 13:00 METAR CYSJ 221300Z 31018G25KT 15SM DRSN FEW020 SCT080 BKN250 M15/M19 A2990 RMK
                 SC2AC2CI1 SLP135 =
2019-01-22 12:00 METAR CYSJ 221200Z 32016G23KT 15SM DRSN SCT020 BKN100 M16/M19 A2986 RMK SC3AC2
                 SLP121 =
2019-01-22 11:00 METAR CYSJ 221100Z 32018G24KT 15SM SCT025 OVC130 M15/M18 A2983 RMK SC4AC4 SLP114
                 =
2019-01-22 10:44 METAR CYSJ 221044Z 31021KT 15SM FEW025 SCT050 OVC130 M15/M18 A2982 RMK SC2SC2AC4
                 SLP110 =
2019-01-22 10:00 METAR CYSJ 221000Z 31019G27KT 6SM -SN SCT025 BKN085 OVC120 M14/M17 A2979 RMK
                 SC3AC3AC2 SLP098 =
2019-01-22 09:00 METAR CYSJ 220900Z 31014G25KT 6SM -SN SCT020 BKN091 OVC110 M14/M17 A2975 RMK
                 SC3AC2AC3 SLP086 =
2019-01-22 08:00 METAR CYSJ 220800Z 31015G22KT 4SM -SN OVC025 M14/M16 A2972 RMK SC8 SLP075 =
2019-01-22 07:00 METAR CYSJ 220700Z 32015G23KT 15SM -SN FEW025 BKN063 OVC080 M14/M16 A2970 RMK
                 SC2SC4AC2 SLP067 =
2019-01-22 06:34 METAR CYSJ 220634Z 32015G21KT 15SM FEW025 OVC075 M14/M17 A2969 RMK SC2AC6 SLP062
                 =
2019-01-22 06:00 METAR CYSJ 220600Z 32016G22KT 4SM -SN SCT045 OVC075 M14/M16 A2967 RMK SC4AC4
                 /S02/ SLP057 =
2019-01-22 05:00 METAR CYSJ 220500Z 31014KT 3SM -SN OVC034 M14/M16 A2965 RMK SC8 SLP051 =
2019-01-22 04:00 METAR CYSJ 220400Z 32014KT 3SM -SN OVC032 M14/M16 A2963 RMK SC8 SLP044 =
2019-01-22 03:00 METAR CYSJ 220300Z 31008KT 3SM -SN BKN032 OVC050 M14/M16 A2961 RMK SC6SC2 SLP035
                 =
2019-01-22 02:00 METAR CYSJ 220200Z 33011G16KT 5SM -SN SCT025 OVC045 M14/M16 A2958 RMK SC4SC4
                 SLP026 =
2019-01-22 01:00 METAR CYSJ 220100Z 32010G18KT 5SM -SN BKN025 OVC037 M13/M16 A2957 RMK SC5SC3
                 SLP023 =
2019-01-22 00:00 METAR CYSJ 220000Z 32009KT 5SM -SN FEW020 OVC062 M13/M15 A2956 RMK SC2SC6 SLP021
                 =
2019-01-21 23:00 METAR CYSJ 212300Z 32009G16KT 5SM -SN FEW011 BKN023 OVC055 M13/M15 A2956 RMK
                 SF1SC4SC3 SLP019 =
2019-01-21 22:00 METAR CYSJ 212200Z 32011KT 5SM -SN FEW012 BKN023 OVC031 M12/M14 A2955 RMK
                 SF2SC4SC2 /S03/ SLP014 =

Support USWX by starting your Amazon purchase here.